sensor_id;sensor_type;location;lat;lon;timestamp;P1;durP1;ratioP1;P2;durP2;ratioP2
49722;SDS011;43484;43.608;1.458;2023-05-10T00:02:23;21.45;;;3.58;;
49722;SDS011;43484;43.608;1.458;2023-05-10T00:04:51;19.35;;;3.00;;
49722;SDS011;43484;43.608;1.458;2023-05-10T00:07:18;20.38;;;2.85;;
49722;SDS011;43484;43.608;1.458;2023-05-10T00:09:45;20.27;;;2.88;;
49722;SDS011;43484;43.608;1.458;2023-05-10T00:12:11;20.13;;;3.10;;
49722;SDS011;43484;43.608;1.458;2023-05-10T00:14:38;26.75;;;4.10;;
49722;SDS011;43484;43.608;1.458;2023-05-10T00:17:04;24.40;;;4.05;;
49722;SDS011;43484;43.608;1.458;2023-05-10T00:19:31;24.38;;;3.72;;
49722;SDS011;43484;43.608;1.458;2023-05-10T00:21:58;23.02;;;4.20;;
49722;SDS011;43484;43.608;1.458;2023-05-10T00:24:24;21.00;;;3.03;;
49722;SDS011;43484;43.608;1.458;2023-05-10T00:26:51;17.05;;;3.40;;
49722;SDS011;43484;43.608;1.458;2023-05-10T00:29:18;26.23;;;3.80;;
49722;SDS011;43484;43.608;1.458;2023-05-10T00:31:45;22.92;;;4.18;;
49722;SDS011;43484;43.608;1.458;2023-05-10T00:34:12;27.50;;;5.28;;
49722;SDS011;43484;43.608;1.458;2023-05-10T00:36:38;24.70;;;3.95;;
49722;SDS011;43484;43.608;1.458;2023-05-10T00:39:05;24.52;;;3.20;;
49722;SDS011;43484;43.608;1.458;2023-05-10T00:41:32;24.63;;;3.38;;
49722;SDS011;43484;43.608;1.458;2023-05-10T00:43:58;29.98;;;3.33;;
49722;SDS011;43484;43.608;1.458;2023-05-10T00:46:25;24.92;;;5.03;;
49722;SDS011;43484;43.608;1.458;2023-05-10T00:48:53;32.55;;;4.57;;
49722;SDS011;43484;43.608;1.458;2023-05-10T00:51:19;28.23;;;3.85;;
49722;SDS011;43484;43.608;1.458;2023-05-10T00:53:46;30.50;;;3.85;;
49722;SDS011;43484;43.608;1.458;2023-05-10T00:56:15;24.15;;;4.25;;
49722;SDS011;43484;43.608;1.458;2023-05-10T00:58:42;25.67;;;4.40;;
49722;SDS011;43484;43.608;1.458;2023-05-10T01:01:09;28.40;;;4.60;;
49722;SDS011;43484;43.608;1.458;2023-05-10T01:03:37;24.10;;;4.22;;
49722;SDS011;43484;43.608;1.458;2023-05-10T01:06:03;31.58;;;4.13;;
49722;SDS011;43484;43.608;1.458;2023-05-10T01:08:30;27.20;;;4.05;;
49722;SDS011;43484;43.608;1.458;2023-05-10T01:10:57;25.85;;;3.75;;
49722;SDS011;43484;43.608;1.458;2023-05-10T01:13:31;23.65;;;3.70;;
49722;SDS011;43484;43.608;1.458;2023-05-10T01:16:01;27.00;;;4.43;;
49722;SDS011;43484;43.608;1.458;2023-05-10T01:18:31;30.55;;;4.32;;
49722;SDS011;43484;43.608;1.458;2023-05-10T01:21:04;32.83;;;4.18;;
49722;SDS011;43484;43.608;1.458;2023-05-10T01:35:28;22.85;;;2.92;;
49722;SDS011;43484;43.608;1.458;2023-05-10T01:38:21;25.15;;;3.65;;
49722;SDS011;43484;43.608;1.458;2023-05-10T01:46:41;25.70;;;3.13;;
49722;SDS011;43484;43.608;1.458;2023-05-10T01:49:08;22.38;;;4.07;;
49722;SDS011;43484;43.608;1.458;2023-05-10T01:51:48;29.45;;;5.13;;
49722;SDS011;43484;43.608;1.458;2023-05-10T01:54:19;30.02;;;3.92;;
49722;SDS011;43484;43.608;1.458;2023-05-10T01:56:48;25.52;;;3.33;;
49722;SDS011;43484;43.608;1.458;2023-05-10T01:59:21;27.35;;;3.67;;
49722;SDS011;43484;43.608;1.458;2023-05-10T02:01:50;17.75;;;2.47;;
49722;SDS011;43484;43.608;1.458;2023-05-10T02:04:18;24.02;;;3.45;;
49722;SDS011;43484;43.608;1.458;2023-05-10T02:06:48;19.80;;;2.72;;
49722;SDS011;43484;43.608;1.458;2023-05-10T02:09:17;27.40;;;3.40;;
49722;SDS011;43484;43.608;1.458;2023-05-10T02:11:46;21.55;;;4.22;;
49722;SDS011;43484;43.608;1.458;2023-05-10T02:14:15;27.65;;;3.42;;
49722;SDS011;43484;43.608;1.458;2023-05-10T02:16:42;31.17;;;3.92;;
49722;SDS011;43484;43.608;1.458;2023-05-10T02:19:10;28.20;;;4.35;;
49722;SDS011;43484;43.608;1.458;2023-05-10T02:21:38;25.23;;;3.33;;
49722;SDS011;43484;43.608;1.458;2023-05-10T02:24:06;20.80;;;3.10;;
49722;SDS011;43484;43.608;1.458;2023-05-10T02:26:34;26.30;;;4.38;;
49722;SDS011;43484;43.608;1.458;2023-05-10T02:29:02;23.02;;;2.92;;
49722;SDS011;43484;43.608;1.458;2023-05-10T02:31:31;22.75;;;2.97;;
49722;SDS011;43484;43.608;1.458;2023-05-10T02:33:59;21.48;;;3.10;;
49722;SDS011;43484;43.608;1.458;2023-05-10T02:36:27;34.13;;;5.05;;
49722;SDS011;43484;43.608;1.458;2023-05-10T02:38:55;27.48;;;3.72;;
49722;SDS011;43484;43.608;1.458;2023-05-10T02:41:23;20.98;;;2.90;;
49722;SDS011;43484;43.608;1.458;2023-05-10T02:43:51;23.00;;;3.40;;
49722;SDS011;43484;43.608;1.458;2023-05-10T02:46:23;21.48;;;3.60;;
49722;SDS011;43484;43.608;1.458;2023-05-10T02:48:50;29.70;;;4.43;;
49722;SDS011;43484;43.608;1.458;2023-05-10T02:51:16;20.80;;;3.20;;
49722;SDS011;43484;43.608;1.458;2023-05-10T02:53:45;29.27;;;3.40;;
49722;SDS011;43484;43.608;1.458;2023-05-10T02:56:15;31.63;;;3.35;;
49722;SDS011;43484;43.608;1.458;2023-05-10T02:58:51;27.75;;;3.42;;
49722;SDS011;43484;43.608;1.458;2023-05-10T03:01:18;28.05;;;3.38;;
49722;SDS011;43484;43.608;1.458;2023-05-10T03:03:45;25.35;;;3.00;;
49722;SDS011;43484;43.608;1.458;2023-05-10T03:06:12;29.77;;;4.20;;
49722;SDS011;43484;43.608;1.458;2023-05-10T03:08:38;25.38;;;3.42;;
49722;SDS011;43484;43.608;1.458;2023-05-10T03:16:29;30.50;;;4.07;;
49722;SDS011;43484;43.608;1.458;2023-05-10T03:19:06;23.95;;;3.72;;
49722;SDS011;43484;43.608;1.458;2023-05-10T03:21:40;22.98;;;2.40;;
49722;SDS011;43484;43.608;1.458;2023-05-10T03:24:09;25.13;;;3.85;;
49722;SDS011;43484;43.608;1.458;2023-05-10T03:26:38;18.10;;;2.17;;
49722;SDS011;43484;43.608;1.458;2023-05-10T03:29:06;14.13;;;2.30;;
49722;SDS011;43484;43.608;1.458;2023-05-10T03:31:34;11.02;;;1.63;;
49722;SDS011;43484;43.608;1.458;2023-05-10T03:34:00;12.38;;;2.90;;
49722;SDS011;43484;43.608;1.458;2023-05-10T03:36:27;17.80;;;2.35;;
49722;SDS011;43484;43.608;1.458;2023-05-10T03:38:54;16.83;;;2.72;;
49722;SDS011;43484;43.608;1.458;2023-05-10T03:41:20;14.18;;;1.70;;
49722;SDS011;43484;43.608;1.458;2023-05-10T03:43:47;21.08;;;2.22;;
49722;SDS011;43484;43.608;1.458;2023-05-10T03:46:14;15.40;;;2.13;;
49722;SDS011;43484;43.608;1.458;2023-05-10T03:48:40;14.77;;;2.85;;
49722;SDS011;43484;43.608;1.458;2023-05-10T03:51:07;18.30;;;2.38;;
49722;SDS011;43484;43.608;1.458;2023-05-10T03:53:33;25.35;;;2.70;;
49722;SDS011;43484;43.608;1.458;2023-05-10T03:56:00;22.15;;;2.22;;
49722;SDS011;43484;43.608;1.458;2023-05-10T03:58:26;22.05;;;2.15;;
49722;SDS011;43484;43.608;1.458;2023-05-10T04:00:53;17.55;;;2.88;;
49722;SDS011;43484;43.608;1.458;2023-05-10T04:03:20;19.38;;;2.13;;
49722;SDS011;43484;43.608;1.458;2023-05-10T04:05:47;23.02;;;2.80;;
49722;SDS011;43484;43.608;1.458;2023-05-10T04:08:13;18.02;;;2.45;;
49722;SDS011;43484;43.608;1.458;2023-05-10T04:10:42;22.98;;;2.67;;
49722;SDS011;43484;43.608;1.458;2023-05-10T04:13:09;19.45;;;2.35;;
49722;SDS011;43484;43.608;1.458;2023-05-10T04:15:35;15.13;;;2.17;;
49722;SDS011;43484;43.608;1.458;2023-05-10T04:18:03;14.02;;;2.13;;
49722;SDS011;43484;43.608;1.458;2023-05-10T04:20:33;20.58;;;1.88;;
49722;SDS011;43484;43.608;1.458;2023-05-10T04:23:00;22.85;;;3.13;;
49722;SDS011;43484;43.608;1.458;2023-05-10T04:25:26;26.40;;;4.32;;
49722;SDS011;43484;43.608;1.458;2023-05-10T04:27:53;16.85;;;2.22;;
49722;SDS011;43484;43.608;1.458;2023-05-10T04:30:20;18.75;;;2.28;;
49722;SDS011;43484;43.608;1.458;2023-05-10T04:32:46;21.45;;;2.28;;
49722;SDS011;43484;43.608;1.458;2023-05-10T04:35:13;20.35;;;2.65;;
49722;SDS011;43484;43.608;1.458;2023-05-10T04:37:40;27.08;;;2.97;;
49722;SDS011;43484;43.608;1.458;2023-05-10T04:40:07;22.38;;;3.17;;
49722;SDS011;43484;43.608;1.458;2023-05-10T04:42:34;13.30;;;2.00;;
49722;SDS011;43484;43.608;1.458;2023-05-10T04:45:01;23.10;;;2.17;;
49722;SDS011;43484;43.608;1.458;2023-05-10T04:47:27;17.55;;;2.50;;
49722;SDS011;43484;43.608;1.458;2023-05-10T04:49:54;18.85;;;2.05;;
49722;SDS011;43484;43.608;1.458;2023-05-10T04:52:20;18.38;;;2.58;;
49722;SDS011;43484;43.608;1.458;2023-05-10T04:54:47;17.60;;;2.17;;
49722;SDS011;43484;43.608;1.458;2023-05-10T04:57:13;27.58;;;2.50;;
49722;SDS011;43484;43.608;1.458;2023-05-10T04:59:40;14.90;;;2.40;;
49722;SDS011;43484;43.608;1.458;2023-05-10T05:02:06;17.48;;;2.80;;
49722;SDS011;43484;43.608;1.458;2023-05-10T05:04:33;20.20;;;2.67;;
49722;SDS011;43484;43.608;1.458;2023-05-10T05:07:00;19.75;;;2.85;;
49722;SDS011;43484;43.608;1.458;2023-05-10T05:09:26;16.17;;;2.83;;
49722;SDS011;43484;43.608;1.458;2023-05-10T05:11:53;19.35;;;2.30;;
49722;SDS011;43484;43.608;1.458;2023-05-10T05:14:20;20.58;;;2.47;;
49722;SDS011;43484;43.608;1.458;2023-05-10T05:16:47;16.90;;;2.15;;
49722;SDS011;43484;43.608;1.458;2023-05-10T05:19:14;16.60;;;2.42;;
49722;SDS011;43484;43.608;1.458;2023-05-10T05:21:40;23.00;;;3.00;;
49722;SDS011;43484;43.608;1.458;2023-05-10T05:24:08;16.25;;;2.40;;
49722;SDS011;43484;43.608;1.458;2023-05-10T05:26:34;24.65;;;3.22;;
49722;SDS011;43484;43.608;1.458;2023-05-10T05:29:01;22.17;;;3.15;;
49722;SDS011;43484;43.608;1.458;2023-05-10T05:31:28;24.15;;;3.00;;
49722;SDS011;43484;43.608;1.458;2023-05-10T05:33:55;23.58;;;2.92;;
49722;SDS011;43484;43.608;1.458;2023-05-10T05:36:21;20.95;;;2.75;;
49722;SDS011;43484;43.608;1.458;2023-05-10T05:38:49;25.17;;;3.05;;
49722;SDS011;43484;43.608;1.458;2023-05-10T05:41:15;19.58;;;3.67;;
49722;SDS011;43484;43.608;1.458;2023-05-10T05:43:42;17.77;;;2.65;;
49722;SDS011;43484;43.608;1.458;2023-05-10T05:46:08;17.73;;;2.38;;
49722;SDS011;43484;43.608;1.458;2023-05-10T05:48:35;19.05;;;2.67;;
49722;SDS011;43484;43.608;1.458;2023-05-10T05:51:02;21.15;;;2.20;;
49722;SDS011;43484;43.608;1.458;2023-05-10T05:53:32;20.77;;;2.72;;
49722;SDS011;43484;43.608;1.458;2023-05-10T05:55:58;16.23;;;2.20;;
49722;SDS011;43484;43.608;1.458;2023-05-10T05:58:25;14.65;;;2.10;;
49722;SDS011;43484;43.608;1.458;2023-05-10T06:00:52;25.75;;;3.10;;
49722;SDS011;43484;43.608;1.458;2023-05-10T06:03:19;19.48;;;2.65;;
49722;SDS011;43484;43.608;1.458;2023-05-10T06:05:46;23.23;;;3.90;;
49722;SDS011;43484;43.608;1.458;2023-05-10T06:08:13;19.25;;;2.92;;
49722;SDS011;43484;43.608;1.458;2023-05-10T06:10:40;27.13;;;3.15;;
49722;SDS011;43484;43.608;1.458;2023-05-10T06:13:07;22.92;;;3.45;;
49722;SDS011;43484;43.608;1.458;2023-05-10T06:15:34;28.77;;;2.97;;
49722;SDS011;43484;43.608;1.458;2023-05-10T06:18:01;20.67;;;2.95;;
49722;SDS011;43484;43.608;1.458;2023-05-10T06:20:28;24.48;;;3.40;;
49722;SDS011;43484;43.608;1.458;2023-05-10T06:22:54;23.30;;;3.55;;
49722;SDS011;43484;43.608;1.458;2023-05-10T06:25:21;34.38;;;3.63;;
49722;SDS011;43484;43.608;1.458;2023-05-10T06:27:47;25.90;;;3.25;;
49722;SDS011;43484;43.608;1.458;2023-05-10T06:30:19;24.52;;;3.83;;
49722;SDS011;43484;43.608;1.458;2023-05-10T06:32:46;34.05;;;4.82;;
49722;SDS011;43484;43.608;1.458;2023-05-10T06:35:13;22.70;;;4.38;;
49722;SDS011;43484;43.608;1.458;2023-05-10T06:37:39;21.52;;;3.33;;
49722;SDS011;43484;43.608;1.458;2023-05-10T06:40:06;25.33;;;4.15;;
49722;SDS011;43484;43.608;1.458;2023-05-10T06:42:33;22.52;;;3.08;;
49722;SDS011;43484;43.608;1.458;2023-05-10T06:45:00;25.63;;;2.58;;
49722;SDS011;43484;43.608;1.458;2023-05-10T06:47:27;24.55;;;3.33;;
49722;SDS011;43484;43.608;1.458;2023-05-10T06:49:53;30.17;;;3.15;;
49722;SDS011;43484;43.608;1.458;2023-05-10T06:52:20;20.60;;;3.13;;
49722;SDS011;43484;43.608;1.458;2023-05-10T06:54:46;22.88;;;3.33;;
49722;SDS011;43484;43.608;1.458;2023-05-10T06:57:13;25.23;;;3.58;;
49722;SDS011;43484;43.608;1.458;2023-05-10T06:59:56;22.60;;;3.42;;
49722;SDS011;43484;43.608;1.458;2023-05-10T07:02:22;26.00;;;3.42;;
49722;SDS011;43484;43.608;1.458;2023-05-10T07:04:49;24.75;;;2.90;;
49722;SDS011;43484;43.608;1.458;2023-05-10T07:07:18;19.15;;;2.85;;
49722;SDS011;43484;43.608;1.458;2023-05-10T07:09:45;23.65;;;3.50;;
49722;SDS011;43484;43.608;1.458;2023-05-10T07:12:12;19.13;;;3.53;;
49722;SDS011;43484;43.608;1.458;2023-05-10T07:14:41;27.45;;;4.43;;
49722;SDS011;43484;43.608;1.458;2023-05-10T07:17:08;24.88;;;2.60;;
49722;SDS011;43484;43.608;1.458;2023-05-10T07:19:35;23.13;;;2.97;;
49722;SDS011;43484;43.608;1.458;2023-05-10T07:22:02;16.30;;;3.15;;
49722;SDS011;43484;43.608;1.458;2023-05-10T07:24:28;18.35;;;2.92;;
49722;SDS011;43484;43.608;1.458;2023-05-10T07:26:56;17.40;;;3.25;;
49722;SDS011;43484;43.608;1.458;2023-05-10T07:29:22;22.92;;;3.08;;
49722;SDS011;43484;43.608;1.458;2023-05-10T07:31:49;18.02;;;2.80;;
49722;SDS011;43484;43.608;1.458;2023-05-10T07:34:15;15.20;;;2.03;;
49722;SDS011;43484;43.608;1.458;2023-05-10T07:36:42;17.98;;;3.47;;
49722;SDS011;43484;43.608;1.458;2023-05-10T07:39:09;18.10;;;3.05;;
49722;SDS011;43484;43.608;1.458;2023-05-10T07:41:39;23.27;;;3.40;;
49722;SDS011;43484;43.608;1.458;2023-05-10T07:44:06;27.33;;;2.97;;
49722;SDS011;43484;43.608;1.458;2023-05-10T07:46:32;19.83;;;3.03;;
49722;SDS011;43484;43.608;1.458;2023-05-10T07:48:59;25.23;;;3.40;;
49722;SDS011;43484;43.608;1.458;2023-05-10T07:51:25;20.08;;;2.83;;
49722;SDS011;43484;43.608;1.458;2023-05-10T07:53:52;18.42;;;3.88;;
49722;SDS011;43484;43.608;1.458;2023-05-10T07:56:23;21.38;;;2.90;;
49722;SDS011;43484;43.608;1.458;2023-05-10T07:58:53;42.47;;;3.85;;
49722;SDS011;43484;43.608;1.458;2023-05-10T08:01:20;18.45;;;2.38;;
49722;SDS011;43484;43.608;1.458;2023-05-10T08:03:47;24.08;;;2.88;;
49722;SDS011;43484;43.608;1.458;2023-05-10T08:06:14;21.35;;;3.50;;
49722;SDS011;43484;43.608;1.458;2023-05-10T08:08:41;17.45;;;1.75;;
49722;SDS011;43484;43.608;1.458;2023-05-10T08:11:08;24.70;;;2.70;;
49722;SDS011;43484;43.608;1.458;2023-05-10T08:13:35;27.02;;;4.05;;
49722;SDS011;43484;43.608;1.458;2023-05-10T08:16:01;30.00;;;3.05;;
49722;SDS011;43484;43.608;1.458;2023-05-10T08:18:28;23.73;;;3.38;;
49722;SDS011;43484;43.608;1.458;2023-05-10T08:20:55;21.67;;;2.35;;
49722;SDS011;43484;43.608;1.458;2023-05-10T08:23:21;15.57;;;2.60;;
49722;SDS011;43484;43.608;1.458;2023-05-10T08:25:48;20.50;;;3.15;;
49722;SDS011;43484;43.608;1.458;2023-05-10T08:28:14;17.42;;;2.85;;
49722;SDS011;43484;43.608;1.458;2023-05-10T08:30:41;18.42;;;2.95;;
49722;SDS011;43484;43.608;1.458;2023-05-10T08:33:07;19.40;;;2.22;;
49722;SDS011;43484;43.608;1.458;2023-05-10T08:35:34;22.70;;;3.72;;
49722;SDS011;43484;43.608;1.458;2023-05-10T08:38:01;23.05;;;3.05;;
49722;SDS011;43484;43.608;1.458;2023-05-10T08:40:28;20.67;;;2.67;;
49722;SDS011;43484;43.608;1.458;2023-05-10T08:42:55;15.18;;;2.15;;
49722;SDS011;43484;43.608;1.458;2023-05-10T08:45:29;26.67;;;3.55;;
49722;SDS011;43484;43.608;1.458;2023-05-10T08:48:01;18.98;;;3.17;;
49722;SDS011;43484;43.608;1.458;2023-05-10T08:50:28;21.35;;;3.60;;
49722;SDS011;43484;43.608;1.458;2023-05-10T08:52:57;16.65;;;2.60;;
49722;SDS011;43484;43.608;1.458;2023-05-10T08:55:29;19.73;;;1.92;;
49722;SDS011;43484;43.608;1.458;2023-05-10T08:57:56;15.38;;;2.30;;
49722;SDS011;43484;43.608;1.458;2023-05-10T09:00:23;19.05;;;1.55;;
49722;SDS011;43484;43.608;1.458;2023-05-10T09:02:50;15.45;;;2.30;;
49722;SDS011;43484;43.608;1.458;2023-05-10T09:05:16;19.10;;;2.00;;
49722;SDS011;43484;43.608;1.458;2023-05-10T09:07:44;11.93;;;1.48;;
49722;SDS011;43484;43.608;1.458;2023-05-10T09:10:11;14.93;;;2.35;;
49722;SDS011;43484;43.608;1.458;2023-05-10T09:12:39;13.77;;;1.60;;
49722;SDS011;43484;43.608;1.458;2023-05-10T09:15:07;18.02;;;2.65;;
49722;SDS011;43484;43.608;1.458;2023-05-10T09:17:35;22.33;;;3.38;;
49722;SDS011;43484;43.608;1.458;2023-05-10T09:20:03;17.85;;;2.55;;
49722;SDS011;43484;43.608;1.458;2023-05-10T09:22:31;13.00;;;1.73;;
49722;SDS011;43484;43.608;1.458;2023-05-10T09:27:35;15.50;;;1.85;;
49722;SDS011;43484;43.608;1.458;2023-05-10T09:30:02;16.58;;;2.53;;
49722;SDS011;43484;43.608;1.458;2023-05-10T09:35:08;15.07;;;1.70;;
49722;SDS011;43484;43.608;1.458;2023-05-10T09:37:40;12.57;;;1.90;;
49722;SDS011;43484;43.608;1.458;2023-05-10T09:40:11;16.83;;;2.28;;
49722;SDS011;43484;43.608;1.458;2023-05-10T09:42:42;9.48;;;1.45;;
49722;SDS011;43484;43.608;1.458;2023-05-10T09:45:17;15.50;;;1.90;;
49722;SDS011;43484;43.608;1.458;2023-05-10T09:47:45;14.05;;;1.77;;
49722;SDS011;43484;43.608;1.458;2023-05-10T09:50:12;15.90;;;1.95;;
49722;SDS011;43484;43.608;1.458;2023-05-10T09:52:48;10.57;;;1.60;;
49722;SDS011;43484;43.608;1.458;2023-05-10T09:55:18;6.35;;;1.30;;
49722;SDS011;43484;43.608;1.458;2023-05-10T09:57:46;13.32;;;1.92;;
49722;SDS011;43484;43.608;1.458;2023-05-10T10:00:17;17.67;;;2.50;;
49722;SDS011;43484;43.608;1.458;2023-05-10T10:02:46;19.48;;;2.30;;
49722;SDS011;43484;43.608;1.458;2023-05-10T10:05:14;16.45;;;2.47;;
49722;SDS011;43484;43.608;1.458;2023-05-10T10:07:41;14.88;;;2.28;;
49722;SDS011;43484;43.608;1.458;2023-05-10T10:10:08;12.55;;;1.70;;
49722;SDS011;43484;43.608;1.458;2023-05-10T10:12:39;16.52;;;2.10;;
49722;SDS011;43484;43.608;1.458;2023-05-10T10:15:07;14.27;;;2.33;;
49722;SDS011;43484;43.608;1.458;2023-05-10T10:17:35;8.55;;;1.50;;
49722;SDS011;43484;43.608;1.458;2023-05-10T10:20:05;10.02;;;1.63;;
49722;SDS011;43484;43.608;1.458;2023-05-10T10:22:37;9.80;;;1.75;;
49722;SDS011;43484;43.608;1.458;2023-05-10T10:25:04;11.55;;;1.60;;
49722;SDS011;43484;43.608;1.458;2023-05-10T10:27:35;19.92;;;2.17;;
49722;SDS011;43484;43.608;1.458;2023-05-10T10:36:02;12.65;;;2.05;;
49722;SDS011;43484;43.608;1.458;2023-05-10T10:38:36;10.63;;;1.17;;
49722;SDS011;43484;43.608;1.458;2023-05-10T10:41:28;7.78;;;1.15;;
49722;SDS011;43484;43.608;1.458;2023-05-10T10:47:06;11.13;;;1.40;;
49722;SDS011;43484;43.608;1.458;2023-05-10T10:49:48;13.00;;;1.40;;
49722;SDS011;43484;43.608;1.458;2023-05-10T10:57:42;10.52;;;1.85;;
49722;SDS011;43484;43.608;1.458;2023-05-10T11:03:06;11.80;;;1.75;;
49722;SDS011;43484;43.608;1.458;2023-05-10T11:05:46;8.57;;;1.52;;
49722;SDS011;43484;43.608;1.458;2023-05-10T11:08:25;19.67;;;1.92;;
49722;SDS011;43484;43.608;1.458;2023-05-10T11:13:27;13.02;;;2.63;;
49722;SDS011;43484;43.608;1.458;2023-05-10T11:15:58;16.50;;;3.00;;
49722;SDS011;43484;43.608;1.458;2023-05-10T11:18:36;22.17;;;2.20;;
49722;SDS011;43484;43.608;1.458;2023-05-10T11:21:03;14.63;;;2.72;;
49722;SDS011;43484;43.608;1.458;2023-05-10T11:23:32;18.92;;;2.25;;
49722;SDS011;43484;43.608;1.458;2023-05-10T11:26:13;15.15;;;1.40;;
49722;SDS011;43484;43.608;1.458;2023-05-10T11:28:44;17.10;;;1.98;;
49722;SDS011;43484;43.608;1.458;2023-05-10T11:31:17;12.65;;;1.65;;
49722;SDS011;43484;43.608;1.458;2023-05-10T11:36:26;18.42;;;2.30;;
49722;SDS011;43484;43.608;1.458;2023-05-10T11:38:55;16.98;;;2.13;;
49722;SDS011;43484;43.608;1.458;2023-05-10T11:41:23;15.35;;;2.47;;
49722;SDS011;43484;43.608;1.458;2023-05-10T11:43:51;12.43;;;1.95;;
49722;SDS011;43484;43.608;1.458;2023-05-10T11:46:22;12.00;;;2.22;;
49722;SDS011;43484;43.608;1.458;2023-05-10T11:48:51;16.13;;;1.73;;
49722;SDS011;43484;43.608;1.458;2023-05-10T11:51:24;9.88;;;1.42;;
49722;SDS011;43484;43.608;1.458;2023-05-10T11:53:55;10.45;;;1.27;;
49722;SDS011;43484;43.608;1.458;2023-05-10T11:56:22;12.50;;;1.77;;
49722;SDS011;43484;43.608;1.458;2023-05-10T11:58:53;13.38;;;1.63;;
49722;SDS011;43484;43.608;1.458;2023-05-10T12:01:22;8.65;;;1.50;;
49722;SDS011;43484;43.608;1.458;2023-05-10T12:03:50;3.95;;;1.25;;
49722;SDS011;43484;43.608;1.458;2023-05-10T12:06:20;13.30;;;1.25;;
49722;SDS011;43484;43.608;1.458;2023-05-10T12:08:48;6.55;;;1.48;;
49722;SDS011;43484;43.608;1.458;2023-05-10T12:11:18;7.32;;;1.02;;
49722;SDS011;43484;43.608;1.458;2023-05-10T12:13:47;7.85;;;1.10;;
49722;SDS011;43484;43.608;1.458;2023-05-10T12:16:16;8.32;;;1.23;;
49722;SDS011;43484;43.608;1.458;2023-05-10T12:18:45;5.15;;;0.90;;
49722;SDS011;43484;43.608;1.458;2023-05-10T12:21:14;8.85;;;1.25;;
49722;SDS011;43484;43.608;1.458;2023-05-10T12:23:41;6.63;;;0.93;;
49722;SDS011;43484;43.608;1.458;2023-05-10T12:26:09;8.27;;;1.15;;
49722;SDS011;43484;43.608;1.458;2023-05-10T12:28:36;8.52;;;0.80;;
49722;SDS011;43484;43.608;1.458;2023-05-10T12:31:04;8.88;;;1.05;;
49722;SDS011;43484;43.608;1.458;2023-05-10T12:33:36;14.57;;;1.77;;
49722;SDS011;43484;43.608;1.458;2023-05-10T12:36:05;8.23;;;1.00;;
49722;SDS011;43484;43.608;1.458;2023-05-10T12:38:33;9.00;;;1.20;;
49722;SDS011;43484;43.608;1.458;2023-05-10T12:41:02;12.48;;;1.20;;
49722;SDS011;43484;43.608;1.458;2023-05-10T12:43:29;19.58;;;1.45;;
49722;SDS011;43484;43.608;1.458;2023-05-10T12:45:56;6.82;;;1.67;;
49722;SDS011;43484;43.608;1.458;2023-05-10T12:48:23;10.38;;;1.08;;
49722;SDS011;43484;43.608;1.458;2023-05-10T12:50:50;6.70;;;1.08;;
49722;SDS011;43484;43.608;1.458;2023-05-10T12:53:16;8.10;;;1.52;;
49722;SDS011;43484;43.608;1.458;2023-05-10T12:55:43;9.88;;;1.42;;
49722;SDS011;43484;43.608;1.458;2023-05-10T12:58:10;11.02;;;1.52;;
49722;SDS011;43484;43.608;1.458;2023-05-10T13:00:46;7.10;;;0.95;;
49722;SDS011;43484;43.608;1.458;2023-05-10T13:03:13;5.90;;;1.23;;
49722;SDS011;43484;43.608;1.458;2023-05-10T13:05:39;6.85;;;0.98;;
49722;SDS011;43484;43.608;1.458;2023-05-10T13:08:06;4.60;;;0.85;;
49722;SDS011;43484;43.608;1.458;2023-05-10T13:10:32;5.47;;;1.05;;
49722;SDS011;43484;43.608;1.458;2023-05-10T13:12:59;4.95;;;1.00;;
49722;SDS011;43484;43.608;1.458;2023-05-10T13:15:26;5.03;;;0.75;;
49722;SDS011;43484;43.608;1.458;2023-05-10T13:17:53;4.68;;;0.77;;
49722;SDS011;43484;43.608;1.458;2023-05-10T13:20:20;4.97;;;0.82;;
49722;SDS011;43484;43.608;1.458;2023-05-10T13:22:46;7.80;;;0.98;;
49722;SDS011;43484;43.608;1.458;2023-05-10T13:25:16;4.68;;;0.50;;
49722;SDS011;43484;43.608;1.458;2023-05-10T13:27:43;5.15;;;0.80;;
49722;SDS011;43484;43.608;1.458;2023-05-10T13:30:10;8.90;;;1.08;;
49722;SDS011;43484;43.608;1.458;2023-05-10T13:32:37;9.40;;;0.98;;
49722;SDS011;43484;43.608;1.458;2023-05-10T13:35:04;6.22;;;1.33;;
49722;SDS011;43484;43.608;1.458;2023-05-10T13:37:32;7.97;;;1.10;;
49722;SDS011;43484;43.608;1.458;2023-05-10T13:40:01;5.22;;;0.93;;
49722;SDS011;43484;43.608;1.458;2023-05-10T13:42:28;6.07;;;1.00;;
49722;SDS011;43484;43.608;1.458;2023-05-10T13:44:54;7.80;;;1.10;;
49722;SDS011;43484;43.608;1.458;2023-05-10T13:47:21;7.88;;;1.15;;
49722;SDS011;43484;43.608;1.458;2023-05-10T13:49:48;3.78;;;0.77;;
49722;SDS011;43484;43.608;1.458;2023-05-10T13:52:15;4.57;;;0.70;;
49722;SDS011;43484;43.608;1.458;2023-05-10T13:54:42;3.35;;;0.80;;
49722;SDS011;43484;43.608;1.458;2023-05-10T13:57:08;9.65;;;1.33;;
49722;SDS011;43484;43.608;1.458;2023-05-10T13:59:35;5.85;;;1.00;;
49722;SDS011;43484;43.608;1.458;2023-05-10T14:02:01;13.77;;;1.63;;
49722;SDS011;43484;43.608;1.458;2023-05-10T14:04:28;10.65;;;1.45;;
49722;SDS011;43484;43.608;1.458;2023-05-10T14:06:56;9.35;;;1.08;;
49722;SDS011;43484;43.608;1.458;2023-05-10T14:09:23;11.48;;;0.88;;
49722;SDS011;43484;43.608;1.458;2023-05-10T14:11:49;4.55;;;1.00;;
49722;SDS011;43484;43.608;1.458;2023-05-10T14:14:17;7.38;;;1.27;;
49722;SDS011;43484;43.608;1.458;2023-05-10T14:16:44;8.40;;;1.02;;
49722;SDS011;43484;43.608;1.458;2023-05-10T14:19:11;5.15;;;0.90;;
49722;SDS011;43484;43.608;1.458;2023-05-10T14:21:38;7.47;;;1.05;;
49722;SDS011;43484;43.608;1.458;2023-05-10T14:24:04;10.77;;;1.00;;
49722;SDS011;43484;43.608;1.458;2023-05-10T14:26:32;5.03;;;0.80;;
49722;SDS011;43484;43.608;1.458;2023-05-10T14:29:00;9.57;;;0.93;;
49722;SDS011;43484;43.608;1.458;2023-05-10T14:31:27;8.05;;;1.10;;
49722;SDS011;43484;43.608;1.458;2023-05-10T14:33:53;10.25;;;1.35;;
49722;SDS011;43484;43.608;1.458;2023-05-10T14:36:20;4.88;;;0.85;;
49722;SDS011;43484;43.608;1.458;2023-05-10T14:38:47;9.55;;;0.77;;
49722;SDS011;43484;43.608;1.458;2023-05-10T14:41:13;5.88;;;1.08;;
49722;SDS011;43484;43.608;1.458;2023-05-10T14:43:42;4.95;;;0.88;;
49722;SDS011;43484;43.608;1.458;2023-05-10T14:46:09;5.05;;;0.75;;
49722;SDS011;43484;43.608;1.458;2023-05-10T14:48:36;6.03;;;1.08;;
49722;SDS011;43484;43.608;1.458;2023-05-10T14:51:02;6.68;;;0.70;;
49722;SDS011;43484;43.608;1.458;2023-05-10T14:53:29;10.02;;;0.98;;
49722;SDS011;43484;43.608;1.458;2023-05-10T14:55:56;4.10;;;0.57;;
49722;SDS011;43484;43.608;1.458;2023-05-10T14:58:23;8.00;;;1.52;;
49722;SDS011;43484;43.608;1.458;2023-05-10T15:00:50;9.20;;;1.13;;
49722;SDS011;43484;43.608;1.458;2023-05-10T15:03:17;10.95;;;1.30;;
49722;SDS011;43484;43.608;1.458;2023-05-10T15:05:44;5.13;;;1.25;;
49722;SDS011;43484;43.608;1.458;2023-05-10T15:08:11;7.40;;;1.02;;
49722;SDS011;43484;43.608;1.458;2023-05-10T15:10:39;6.15;;;1.08;;
49722;SDS011;43484;43.608;1.458;2023-05-10T15:13:06;9.10;;;1.27;;
49722;SDS011;43484;43.608;1.458;2023-05-10T15:15:32;6.00;;;1.15;;
49722;SDS011;43484;43.608;1.458;2023-05-10T15:17:59;8.20;;;1.27;;
49722;SDS011;43484;43.608;1.458;2023-05-10T15:20:25;7.43;;;0.70;;
49722;SDS011;43484;43.608;1.458;2023-05-10T15:22:52;5.95;;;1.38;;
49722;SDS011;43484;43.608;1.458;2023-05-10T15:25:19;7.43;;;0.70;;
49722;SDS011;43484;43.608;1.458;2023-05-10T15:27:46;6.55;;;1.05;;
49722;SDS011;43484;43.608;1.458;2023-05-10T15:30:12;4.97;;;1.05;;
49722;SDS011;43484;43.608;1.458;2023-05-10T15:32:39;3.90;;;0.63;;
49722;SDS011;43484;43.608;1.458;2023-05-10T15:35:09;4.80;;;0.88;;